createdAt,value
2023-03-18T00:05:50.825Z,0
2023-03-18T00:11:50.782Z,0
2023-03-18T00:17:50.778Z,0
2023-03-18T00:23:50.859Z,0
2023-03-18T00:29:50.816Z,0
2023-03-18T00:35:50.832Z,0
2023-03-18T00:41:50.799Z,0
2023-03-18T00:47:50.776Z,0
2023-03-18T00:53:50.791Z,0
2023-03-18T00:59:50.817Z,0
2023-03-18T01:05:50.781Z,0
2023-03-18T01:11:50.786Z,0
2023-03-18T01:17:50.807Z,0
2023-03-18T01:23:50.789Z,0
2023-03-18T01:29:50.789Z,0
2023-03-18T01:35:50.813Z,0
2023-03-18T01:41:50.784Z,0
2023-03-18T01:47:50.795Z,0
2023-03-18T01:53:50.807Z,0
2023-03-18T01:59:50.794Z,0
2023-03-18T02:05:50.778Z,0
2023-03-18T02:11:50.833Z,0
2023-03-18T02:17:50.788Z,0
2023-03-18T02:23:50.795Z,0
2023-03-18T02:29:50.819Z,0
2023-03-18T02:35:50.799Z,0
2023-03-18T02:41:50.776Z,0
2023-03-18T02:47:50.821Z,0
2023-03-18T02:53:50.845Z,0
2023-03-18T02:59:50.815Z,0
2023-03-18T03:05:50.813Z,0
2023-03-18T03:11:50.794Z,0
2023-03-18T03:17:50.815Z,0
2023-03-18T03:23:50.885Z,0
2023-03-18T03:29:50.787Z,0
2023-03-18T03:35:50.791Z,0
2023-03-18T03:42:01.110Z,0
2023-03-18T03:47:50.796Z,0
2023-03-18T03:53:50.803Z,0
2023-03-18T03:59:50.816Z,0
2023-03-18T04:05:50.807Z,0
2023-03-18T04:11:50.807Z,0
2023-03-18T04:17:50.914Z,0
2023-03-18T04:23:50.783Z,0
2023-03-18T04:29:50.791Z,0
2023-03-18T04:35:50.842Z,0
2023-03-18T04:41:50.808Z,0
2023-03-18T04:47:50.789Z,0
2023-03-18T04:53:50.815Z,0
2023-03-18T04:59:50.827Z,0
2023-03-18T05:05:50.779Z,0
2023-03-18T05:11:50.826Z,0
2023-03-18T05:17:50.765Z,0
2023-03-18T05:23:50.769Z,0
2023-03-18T05:29:50.810Z,0
2023-03-18T05:35:50.804Z,0
2023-03-18T05:41:50.784Z,0
2023-03-18T05:47:50.802Z,0
2023-03-18T05:53:50.768Z,0
2023-03-18T05:59:50.777Z,0
2023-03-18T06:05:50.787Z,0
2023-03-18T06:11:50.792Z,0
2023-03-18T06:17:50.800Z,0
2023-03-18T06:23:50.820Z,0
2023-03-18T06:29:50.776Z,0
2023-03-18T06:35:51.028Z,0
2023-03-18T06:41:50.803Z,0
2023-03-18T06:47:50.810Z,0
2023-03-18T06:53:50.783Z,0.2
2023-03-18T06:59:50.820Z,2.4
2023-03-18T07:05:50.835Z,3.1
2023-03-18T07:11:50.790Z,4.4
2023-03-18T07:17:51.013Z,5.1
2023-03-18T07:23:50.808Z,6.2
2023-03-18T07:29:50.791Z,6.7
2023-03-18T07:35:50.905Z,9.5
2023-03-18T07:41:50.790Z,10.5
2023-03-18T07:47:50.791Z,10.8
2023-03-18T07:53:50.856Z,11.7
2023-03-18T07:59:50.815Z,10.8
2023-03-18T08:05:50.849Z,9.9
2023-03-18T08:11:50.840Z,10.7
2023-03-18T08:17:50.864Z,12.9
2023-03-18T08:23:50.809Z,12.4
2023-03-18T08:29:50.816Z,10.8
2023-03-18T08:35:50.813Z,9.5
2023-03-18T08:41:50.811Z,9.5
2023-03-18T08:47:50.841Z,8.9
2023-03-18T08:53:50.806Z,9.5
2023-03-18T08:59:50.816Z,9.5
2023-03-18T09:05:50.830Z,10.5
2023-03-18T09:11:50.810Z,11.6
2023-03-18T09:18:08.125Z,11.3
2023-03-18T09:23:50.953Z,11.7
2023-03-18T09:29:51.095Z,10.7
2023-03-18T09:35:50.914Z,11.3
2023-03-18T09:41:50.854Z,10.6
2023-03-18T09:47:50.826Z,10.7
2023-03-18T09:53:50.827Z,10.4
2023-03-18T09:59:51.091Z,11.4
2023-03-18T10:05:50.833Z,11.4
2023-03-18T10:11:50.827Z,10.7
2023-03-18T10:17:50.914Z,11.4
2023-03-18T10:23:50.859Z,12.6
2023-03-18T10:29:50.842Z,13.5
2023-03-18T10:35:50.874Z,13.5
2023-03-18T10:41:50.841Z,13.6
2023-03-18T10:47:50.831Z,13.5
2023-03-18T10:53:50.859Z,12.6
2023-03-18T10:59:50.862Z,13.9
2023-03-18T11:05:50.875Z,12.7
2023-03-18T11:11:50.868Z,12.9
2023-03-18T11:17:50.865Z,14.2
2023-03-18T11:23:53.037Z,13
2023-03-18T11:29:50.891Z,10.6
2023-03-18T11:35:50.927Z,10
2023-03-18T11:41:50.851Z,9.3
2023-03-18T11:47:50.877Z,9.9
2023-03-18T11:53:50.857Z,9.6
2023-03-18T11:59:50.883Z,10.2
2023-03-18T12:05:50.871Z,9.7
2023-03-18T12:11:50.845Z,9.5
2023-03-18T12:17:50.879Z,9.6
2023-03-18T12:23:50.891Z,9.5
2023-03-18T12:29:50.865Z,9.7
2023-03-18T12:35:50.951Z,9.9
2023-03-18T12:41:50.923Z,9.4
2023-03-18T12:47:50.860Z,10.5
2023-03-18T12:53:50.868Z,9.7
2023-03-18T12:59:53.121Z,10.5
2023-03-18T13:05:50.876Z,10
2023-03-18T13:11:50.876Z,9.5
2023-03-18T13:18:01.182Z,9.3
2023-03-18T13:23:50.877Z,9.6
2023-03-18T13:29:50.905Z,8.8
2023-03-18T13:35:50.922Z,9.5
2023-03-18T13:41:50.876Z,8.8
2023-03-18T13:47:50.871Z,7.8
2023-03-18T13:53:50.934Z,5.3
2023-03-18T13:59:50.874Z,6.2
2023-03-18T14:05:50.889Z,7
2023-03-18T14:11:50.915Z,6.9
2023-03-18T14:17:50.895Z,6.3
2023-03-18T14:23:50.874Z,5.8
2023-03-18T14:29:50.903Z,6.2
2023-03-18T14:35:51.224Z,6.1
2023-03-18T14:41:50.884Z,6.7
2023-03-18T14:47:50.910Z,6.2
2023-03-18T14:53:50.887Z,6.9
2023-03-18T14:59:50.903Z,7
2023-03-18T15:05:50.906Z,6.7
2023-03-18T15:11:50.930Z,7
2023-03-18T15:17:50.902Z,6.3
2023-03-18T15:23:50.927Z,6.2
2023-03-18T15:29:50.877Z,6.3
2023-03-18T15:35:50.963Z,7.3
2023-03-18T15:41:50.929Z,6.9
2023-03-18T15:47:50.880Z,6.8
2023-03-18T15:53:50.908Z,6.9
2023-03-18T15:59:50.935Z,6.7
2023-03-18T16:05:50.898Z,7.1
2023-03-18T16:11:50.889Z,6.9
2023-03-18T16:17:50.918Z,6.9
2023-03-18T16:23:50.892Z,6.7
2023-03-18T16:29:50.917Z,6.8
2023-03-18T16:35:50.947Z,6.6
2023-03-18T16:41:50.905Z,7.1
2023-03-18T16:47:50.892Z,6.5
2023-03-18T16:53:50.915Z,6.8
2023-03-18T16:59:50.938Z,6.6
2023-03-18T17:05:50.893Z,6.7
2023-03-18T17:11:50.916Z,6.3
2023-03-18T17:17:50.920Z,6.8
2023-03-18T17:23:50.901Z,6.7
2023-03-18T17:29:50.947Z,6.6
2023-03-18T17:35:50.932Z,6.4
2023-03-18T17:41:50.895Z,6.2
2023-03-18T17:47:50.931Z,6.4
2023-03-18T17:53:50.917Z,6.1
2023-03-18T17:59:50.910Z,6.1
2023-03-18T18:05:50.917Z,6.2
2023-03-18T18:11:50.950Z,6.3
2023-03-18T18:17:50.907Z,6.2
2023-03-18T18:23:50.929Z,6
2023-03-18T18:29:50.929Z,6
2023-03-18T18:35:50.908Z,5.8
2023-03-18T18:41:50.934Z,6.1
2023-03-18T18:47:50.982Z,6
2023-03-18T18:53:50.901Z,5.9
2023-03-18T18:59:50.937Z,6
2023-03-18T19:05:50.932Z,5.9
2023-03-18T19:11:50.920Z,6
2023-03-18T19:17:50.934Z,5.8
2023-03-18T19:23:50.923Z,5.5
2023-03-18T19:29:50.920Z,5.5
2023-03-18T19:35:51.005Z,5.3
2023-03-18T19:41:50.924Z,5.8
2023-03-18T19:47:50.923Z,5.3
2023-03-18T19:53:50.929Z,5.8
2023-03-18T19:59:50.905Z,5.5
2023-03-18T20:05:50.908Z,5.8
2023-03-18T20:11:56.940Z,5.6
2023-03-18T20:17:50.954Z,5.6
2023-03-18T20:23:50.921Z,5.6
2023-03-18T20:29:50.942Z,5.7
2023-03-18T20:35:50.923Z,5.9
2023-03-18T20:41:50.921Z,5.7
2023-03-18T20:47:50.950Z,5.9
2023-03-18T20:53:50.925Z,5.9
2023-03-18T20:59:50.923Z,5.5
2023-03-18T21:05:50.933Z,5.8
2023-03-18T21:11:54.724Z,5.8
2023-03-18T21:17:50.924Z,5.8
2023-03-18T21:24:01.297Z,5.7
2023-03-18T21:29:50.940Z,5.8
2023-03-18T21:35:50.938Z,5.7
2023-03-18T21:41:50.958Z,5.4
2023-03-18T21:47:50.922Z,5.4
2023-03-18T21:53:50.917Z,5.7
2023-03-18T21:59:50.952Z,5.5
2023-03-18T22:05:50.930Z,5.2
2023-03-18T22:11:50.931Z,5.1
2023-03-18T22:17:50.961Z,5.2
2023-03-18T22:23:50.944Z,5
2023-03-18T22:29:50.933Z,4.8
2023-03-18T22:35:51.070Z,4.5
2023-03-18T22:41:50.938Z,4.5
2023-03-18T22:47:50.934Z,4.4
2023-03-18T22:53:51.022Z,4.2
2023-03-18T22:59:50.953Z,4
2023-03-18T23:05:50.941Z,3.9
2023-03-18T23:11:50.954Z,3.8
2023-03-18T23:17:50.933Z,3.7
2023-03-18T23:23:50.924Z,3.6
2023-03-18T23:29:50.942Z,3.6
2023-03-18T23:35:51.039Z,3.6
2023-03-18T23:41:50.918Z,3.4
2023-03-18T23:48:01.253Z,3.5
2023-03-18T23:53:50.923Z,3.4
2023-03-18T23:59:50.927Z,3.4
